ADDS METAR Data INFO
IDs: Format: Raw Decoded Include TAF

Data at: 1714 UTC 23 Oct 2017

KCBG 231655Z AUTO 29010G20KT 10SM SCT041 16/06 A2977 RMK AO2
KCBG 231635Z AUTO 29011KT 10SM CLR 16/06 A2976 RMK AO2
KCBG 231615Z AUTO 29011G14KT 10SM CLR 15/06 A2974 RMK AO2
KCBG 231555Z AUTO 27008G16KT 10SM CLR 16/06 A2973 RMK AO2
KCBG 231535Z AUTO 28013G18KT 10SM CLR 15/06 A2973 RMK AO2
KCBG 231515Z AUTO 28012G15KT 10SM CLR 14/06 A2973 RMK AO2
KCBG 231455Z AUTO 29012G18KT 10SM CLR 14/06 A2973 RMK AO2
KCBG 231435Z AUTO 27011G17KT 10SM CLR 14/06 A2973 RMK AO2
KCBG 231415Z AUTO 27008KT 10SM CLR 13/05 A2973 RMK AO2
KCBG 231400Z AUTO 25005KT 10SM CLR 12/04 A2973 RMK AO2
KCBG 231335Z AUTO 21004KT 10SM CLR 11/03 A2974 RMK AO2
KCBG 231315Z AUTO 22005KT 10SM CLR 11/03 A2974 RMK AO2
KCBG 231255Z AUTO 19005KT 10SM CLR 11/03 A2974 RMK AO2
KCBG 231235Z AUTO 19005KT 10SM CLR 11/03 A2975 RMK AO2
KCBG 231215Z AUTO 18006KT 10SM CLR 11/03 A2975 RMK AO2
KCBG 231155Z AUTO 18005KT 10SM SCT110 11/03 A2975 RMK AO2
KCBG 231135Z AUTO 18006KT 10SM SCT110 12/03 A2974 RMK AO2
KCBG 231115Z AUTO 17006KT 10SM SCT095 12/03 A2974 RMK AO2
KCBG 231055Z AUTO 17007KT 10SM BKN095 12/03 A2974 RMK AO2
KCBG 231035Z AUTO 17008KT 10SM SCT080 BKN095 13/03 A2975 RMK AO2
KCBG 231015Z AUTO 17009KT 10SM SCT080 BKN095 13/03 A2975 RMK AO2
KCBG 230955Z AUTO 18007KT 10SM -RA SCT060 SCT080 120 13/03 A2975 RMK AO2
KCBG 230935Z AUTO 17007KT 10SM BKN120 12/03 A2976 RMK AO2
KCBG 230915Z AUTO 16008KT 10SM OVC110 13/03 A2977 RMK AO2
KCBG 230855Z AUTO 15006KT 10SM OVC110 13/03 A2977 RMK AO2
KCBG 230835Z AUTO 16006KT 10SM OVC110 12/03 A2979 RMK AO2
KCBG 230815Z AUTO 16005KT 10SM SCT110 12/03 A2980 RMK AO2
KCBG 230755Z AUTO 15005KT 10SM SCT110 13/03 A2980 RMK AO2
KCBG 230735Z AUTO 16006KT 10SM BKN110 13/03 A2980 RMK AO2
KCBG 230715Z AUTO 16007KT 10SM OVC095 13/03 A2980 RMK AO2
KCBG 230655Z AUTO 15007KT 10SM SCT055 BKN095 BKN110 14/03 A2980 RMK AO2
KCBG 230635Z AUTO 15007KT 10SM -RA SCT055 BKN075 14/03 A2980 RMK AO2
KCBG 230615Z AUTO 15006KT 10SM SCT075 BKN085 14/03 A2982 RMK AO2
KCBG 230555Z AUTO 16005KT 10SM CLR 13/03 A2983 RMK AO2
KCBG 230535Z AUTO 16006KT 10SM CLR 14/03 A2983 RMK AO2
KCBG 230515Z AUTO 17007KT 10SM SCT090 14/03 A2984 RMK AO2
KCBG 230456Z AUTO 18005KT 10SM BKN090 14/03 A2985 RMK AO2
KCBG 230435Z AUTO 17008KT 10SM BKN090 14/03 A2985 RMK AO2
KCBG 230415Z AUTO 16008KT 10SM CLR 14/03 A2985 RMK AO2
KCBG 230355Z AUTO 16007KT 10SM CLR 13/03 A2986 RMK AO2
KCBG 230335Z AUTO 16007KT 10SM CLR 13/03 A2987 RMK AO2
KCBG 230315Z AUTO 16007KT 10SM CLR 13/03 A2988 RMK AO2
KCBG 230255Z AUTO 15007KT 10SM CLR 13/03 A2988 RMK AO2
KCBG 230235Z AUTO 15006KT 10SM CLR 13/03 A2989 RMK AO2
KCBG 230215Z AUTO 15005KT 10SM CLR 13/03 A2989 RMK AO2
KCBG 230155Z AUTO 15005KT 10SM CLR 13/03 A2990 RMK AO2
KCBG 230135Z AUTO 15005KT 10SM CLR 13/03 A2990 RMK AO2
KCBG 230115Z AUTO 15005KT 10SM CLR 13/03 A2991 RMK AO2
KCBG 230055Z AUTO 15004KT 10SM CLR 13/03 A2991 RMK AO2
KCBG 230035Z AUTO 15004KT 10SM CLR 13/03 A2991 RMK AO2
KCBG 230015Z AUTO 15003KT 10SM CLR 13/03 A2991 RMK AO2
KCBG 222355Z AUTO 15003KT 10SM CLR 13/03 A2991 RMK AO2
KCBG 222335Z AUTO 15003KT 10SM CLR 14/03 A2991 RMK AO2
KCBG 222315Z AUTO 17004KT 10SM CLR 14/03 A2991 RMK AO2
KCBG 222255Z AUTO 20004KT 10SM CLR 16/03 A2991 RMK AO2
KCBG 222235Z AUTO 21005KT 10SM CLR 17/04 A2991 RMK AO2
KCBG 222215Z AUTO 22005KT 10SM CLR 17/04 A2991 RMK AO2
KCBG 222155Z AUTO 23006KT 10SM CLR 18/04 A2992 RMK AO2
KCBG 222135Z AUTO 27008KT 10SM CLR 18/04 A2991 RMK AO2
KCBG 222115Z AUTO 25006KT 10SM CLR 18/04 A2992 RMK AO2
KCBG 222055Z AUTO 24010G14KT 10SM CLR 18/04 A2992 RMK AO2
KCBG 222035Z AUTO 24008G14KT 10SM CLR 18/05 A2992 RMK AO2
KCBG 222015Z AUTO 26009KT 10SM CLR 18/05 A2992 RMK AO2
KCBG 221955Z AUTO 26006KT 10SM CLR 18/04 A2992 RMK AO2
KCBG 221935Z AUTO 27012G16KT 10SM CLR 18/04 A2993 RMK AO2
KCBG 221915Z AUTO 26008KT 10SM CLR 18/05 A2993 RMK AO2
KCBG 221855Z AUTO 26011G16KT 10SM CLR 17/04 A2994 RMK AO2
KCBG 221835Z AUTO 26014G19KT 10SM CLR 17/04 A2995 RMK AO2
KCBG 221816Z AUTO 26013G21KT 10SM CLR 17/04 A2995 RMK AO2
KCBG 221755Z AUTO 23010G16KT 203V273 10SM CLR 16/06 A2996 RMK AO2
KCBG 221735Z AUTO 25006KT 10SM CLR 15/06 A2996 RMK AO2
KCBG 221715Z AUTO 22007KT 193V253 10SM CLR 15/06 A2997 RMK AO2
KCBG 221655Z AUTO 25005KT 10SM CLR 14/06 A2997 RMK AO2
KCBG 221635Z AUTO 22007KT 10SM CLR 13/05 A2997 RMK AO2
KCBG 221615Z AUTO 21006KT 10SM CLR 12/04 A2998 RMK AO2
KCBG 221555Z AUTO 22005KT 10SM CLR 11/04 A2998 RMK AO2
KCBG 221535Z AUTO 22005KT 10SM CLR 11/04 A2998 RMK AO2
KCBG 221515Z AUTO 21004KT 10SM CLR 11/04 A2997 RMK AO2
KCBG 221455Z AUTO 23005KT 10SM CLR 10/04 A2995 RMK AO2
KCBG 221435Z AUTO 21004KT 10SM CLR 10/04 A2995 RMK AO2
KCBG 221415Z AUTO 22005KT 10SM CLR 09/04 A2995 RMK AO2
KCBG 221355Z AUTO 21005KT 10SM CLR 09/05 A2995 RMK AO2
KCBG 221335Z AUTO 22005KT 10SM CLR 09/05 A2995 RMK AO2
KCBG 221315Z AUTO 23004KT 10SM CLR 09/04 A2994 RMK AO2
KCBG 221255Z AUTO 23005KT 10SM CLR 09/04 A2993 RMK AO2
KCBG 221235Z AUTO 24005KT 10SM CLR 09/04 A2992 RMK AO2
KCBG 221215Z AUTO 24005KT 10SM CLR 09/04 A2992 RMK AO2
KCBG 221155Z AUTO 23006KT 10SM CLR 09/04 A2991 RMK AO2
KCBG 221135Z AUTO 23004KT 10SM CLR 09/04 A2991 RMK AO2
KCBG 221115Z AUTO 21006KT 10SM CLR 09/04 A2989 RMK AO2
KCBG 221055Z AUTO 23005KT 10SM CLR 10/04 A2989 RMK AO2
KCBG 221035Z AUTO 25005KT 10SM CLR 10/04 A2988 RMK AO2
KCBG 221015Z AUTO 26007KT 10SM CLR 10/04 A2988 RMK AO2
KCBG 220955Z AUTO 24008KT 10SM CLR 10/04 A2988 RMK AO2
KCBG 220935Z AUTO 23005KT 10SM CLR 09/06 A2987 RMK AO2
KCBG 220915Z AUTO 23005KT 10SM CLR 09/06 A2986 RMK AO2
KCBG 220855Z AUTO 24004KT 10SM CLR 09/07 A2986 RMK AO2
KCBG 220835Z AUTO 23004KT 10SM CLR 09/07 A2985 RMK AO2
KCBG 220815Z AUTO 23005KT 10SM CLR 09/07 A2985 RMK AO2
KCBG 220756Z AUTO 23005KT 10SM CLR 09/07 A2985 RMK AO2
KCBG 220735Z AUTO 23004KT 10SM CLR 09/07 A2984 RMK AO2
KCBG 220715Z AUTO 22003KT 10SM CLR 09/07 A2984 RMK AO2
KCBG 220655Z AUTO 22005KT 10SM CLR 09/08 A2984 RMK AO2
KCBG 220635Z AUTO 22004KT 10SM CLR 09/08 A2984 RMK AO2
KCBG 220615Z AUTO 20003KT 10SM CLR 10/08 A2984 RMK AO2
KCBG 220555Z AUTO 20004KT 10SM CLR 10/08 A2984 RMK AO2
KCBG 220535Z AUTO 22003KT 10SM CLR 11/07 A2982 RMK AO2
KCBG 220515Z AUTO 23003KT 10SM CLR 11/07 A2983 RMK AO2